Time,TemperatureF,DewpointF,PressureIn,WindDirection,WindDirectionDegrees,WindSpeedMPH,WindSpeedGustMPH,Humidity,HourlyPrecipIn,Conditions,Clouds,dailyrainin,SoftwareType,DateUTC
2013-04-14 00:02:00,57.0,46.0,29.39,East,80,6.0,-999.0,67,-99.99,,,-99.99,,2013-04-14 05:02:00,
2013-04-14 00:12:00,57.0,46.0,29.38,East,90,7.0,-999.0,67,-99.99,,,-99.99,,2013-04-14 05:12:00,
2013-04-14 00:22:00,55.0,46.0,29.37,East,100,7.0,-999.0,71,-99.99,,,-99.99,,2013-04-14 05:22:00,
2013-04-14 00:32:00,55.0,46.0,29.37,East,100,7.0,-999.0,71,-99.99,,,-99.99,,2013-04-14 05:32:00,
2013-04-14 00:42:00,55.0,46.0,29.37,East,100,7.0,-999.0,71,-99.99,,,-99.99,,2013-04-14 05:42:00,
2013-04-14 00:52:00,54.0,46.0,29.35,ESE,110,8.0,-999.0,76,-99.99,,,-99.99,,2013-04-14 05:52:00,
2013-04-14 01:02:00,54.0,46.0,29.35,ESE,110,8.0,-999.0,76,-99.99,,,-99.99,,2013-04-14 06:02:00,
2013-04-14 01:12:00,54.0,45.0,29.34,ESE,120,7.0,-999.0,71,-99.99,,,-99.99,,2013-04-14 06:12:00,
2013-04-14 01:22:00,55.0,43.0,29.33,ENE,70,3.0,-999.0,62,-99.99,,,-99.99,,2013-04-14 06:22:00,
2013-04-14 01:32:00,57.0,41.0,29.32,ENE,70,5.0,-999.0,54,-99.99,,,-99.99,,2013-04-14 06:32:00,
2013-04-14 01:42:00,57.0,41.0,29.32,ENE,70,6.0,-999.0,54,-99.99,,,-99.99,,2013-04-14 06:42:00,
2013-04-14 01:52:00,57.0,41.0,29.31,ESE,110,6.0,-999.0,54,-99.99,,,-99.99,,2013-04-14 06:52:00,
2013-04-14 02:02:00,57.0,41.0,29.31,ESE,110,6.0,-999.0,54,-99.99,,,-99.99,,2013-04-14 07:02:00,
2013-04-14 02:12:00,61.0,39.0,29.30,SSE,160,13.0,18.0,44,-99.99,,,-99.99,,2013-04-14 07:12:00,
2013-04-14 02:22:00,61.0,39.0,29.28,SSE,160,15.0,23.0,44,-99.99,,,-99.99,,2013-04-14 07:22:00,
2013-04-14 02:32:00,63.0,39.0,29.28,South,170,20.0,25.0,41,-99.99,,,-99.99,,2013-04-14 07:32:00,
2013-04-14 02:42:00,63.0,39.0,29.27,South,170,17.0,25.0,41,-99.99,,,-99.99,,2013-04-14 07:42:00,
2013-04-14 02:52:00,63.0,39.0,29.26,South,180,23.0,33.0,41,-99.99,,,-99.99,,2013-04-14 07:52:00,
2013-04-14 03:02:00,63.0,39.0,29.26,South,180,23.0,33.0,41,-99.99,,,-99.99,,2013-04-14 08:02:00,
2013-04-14 03:12:00,63.0,39.0,29.25,South,180,21.0,33.0,41,-99.99,,,-99.99,,2013-04-14 08:12:00,
2013-04-14 03:22:00,63.0,41.0,29.24,South,170,24.0,31.0,45,-99.99,,,-99.99,,2013-04-14 08:22:00,
2013-04-14 03:32:00,63.0,41.0,29.24,South,180,23.0,32.0,45,-99.99,,,-99.99,,2013-04-14 08:32:00,
2013-04-14 03:42:00,63.0,43.0,29.23,South,180,22.0,31.0,48,-99.99,,,-99.99,,2013-04-14 08:42:00,
2013-04-14 03:52:00,63.0,43.0,29.23,South,180,27.0,32.0,48,-99.99,,,-99.99,,2013-04-14 08:52:00,
2013-04-14 04:03:00,63.0,43.0,29.23,South,180,27.0,32.0,48,-99.99,,,-99.99,,2013-04-14 09:03:00,
2013-04-14 04:12:00,63.0,43.0,29.23,South,190,22.0,33.0,48,-99.99,,,-99.99,,2013-04-14 09:12:00,
2013-04-14 04:22:00,63.0,43.0,29.24,South,190,22.0,32.0,48,-99.99,,,-99.99,,2013-04-14 09:22:00,
2013-04-14 04:32:00,63.0,45.0,29.25,SSW,200,27.0,31.0,51,-99.99,,,-99.99,,2013-04-14 09:32:00,
2013-04-14 04:42:00,63.0,45.0,29.25,SSW,200,22.0,31.0,51,-99.99,,,-99.99,,2013-04-14 09:42:00,
2013-04-14 04:53:00,63.0,45.0,29.26,SSW,210,22.0,29.0,51,-99.99,,,-99.99,,2013-04-14 09:53:00,
2013-04-14 05:03:00,63.0,45.0,29.26,SSW,210,22.0,29.0,51,-99.99,,,-99.99,,2013-04-14 10:03:00,
2013-04-14 05:12:00,61.0,43.0,29.27,SW,230,25.0,35.0,51,-99.99,,,-99.99,,2013-04-14 10:12:00,
2013-04-14 05:23:00,55.0,43.0,29.29,WSW,240,23.0,33.0,62,-99.99,,,-99.99,,2013-04-14 10:23:00,
2013-04-14 05:32:00,54.0,43.0,29.29,West,260,22.0,30.0,66,-99.99,,,-99.99,,2013-04-14 10:32:00,
2013-04-14 05:42:00,52.0,45.0,29.29,West,260,27.0,33.0,76,-99.99,,,-99.99,,2013-04-14 10:42:00,
2013-04-14 05:52:00,52.0,45.0,29.30,West,280,22.0,31.0,76,-99.99,,,-99.99,,2013-04-14 10:52:00,
2013-04-14 06:02:00,52.0,45.0,29.30,West,280,22.0,31.0,76,-99.99,,,-99.99,,2013-04-14 11:02:00,
2013-04-14 06:12:00,52.0,46.0,29.30,WNW,290,24.0,31.0,81,-99.99,,,-99.99,,2013-04-14 11:12:00,
2013-04-14 06:22:00,52.0,46.0,29.31,WNW,300,27.0,37.0,81,-99.99,,,-99.99,,2013-04-14 11:22:00,
2013-04-14 06:32:00,52.0,46.0,29.31,WNW,300,27.0,37.0,81,-99.99,,,-99.99,,2013-04-14 11:32:00,
2013-04-14 06:42:00,52.0,46.0,29.31,WNW,300,29.0,39.0,81,-99.99,,,-99.99,,2013-04-14 11:42:00,
2013-04-14 06:52:00,54.0,45.0,29.31,NW,320,29.0,43.0,71,-99.99,,,-99.99,,2013-04-14 11:52:00,
2013-04-14 07:02:00,54.0,45.0,29.31,NW,320,29.0,43.0,71,-99.99,,,-99.99,,2013-04-14 12:02:00,
2013-04-14 07:12:00,54.0,43.0,29.32,NW,310,25.0,36.0,66,-99.99,,,-99.99,,2013-04-14 12:12:00,
2013-04-14 07:21:00,52.0,43.0,29.32,NW,310,25.0,36.0,71,-99.99,,,-99.99,,2013-04-14 12:21:00,
2013-04-14 07:32:00,52.0,45.0,29.33,NW,310,23.0,32.0,76,-99.99,,,-99.99,,2013-04-14 12:32:00,
2013-04-14 07:42:00,52.0,45.0,29.33,NNW,330,17.0,23.0,76,-99.99,,,-99.99,,2013-04-14 12:42:00,
2013-04-14 07:51:00,52.0,45.0,29.34,NNW,330,18.0,23.0,76,-99.99,,,-99.99,,2013-04-14 12:51:00,
2013-04-14 08:02:00,52.0,45.0,29.34,NNW,330,18.0,23.0,76,-99.99,,,-99.99,,2013-04-14 13:02:00,
2013-04-14 08:12:00,52.0,45.0,29.38,WNW,290,12.0,-999.0,76,-99.99,,,-99.99,,2013-04-14 13:12:00,
2013-04-14 08:22:00,52.0,45.0,29.41,West,280,13.0,18.0,76,-99.99,,,-99.99,,2013-04-14 13:22:00,
2013-04-14 08:32:00,52.0,45.0,29.42,West,270,14.0,18.0,76,-99.99,,,-99.99,,2013-04-14 13:32:00,
2013-04-14 08:42:00,52.0,45.0,29.42,West,270,13.0,-999.0,76,-99.99,,,-99.99,,2013-04-14 13:42:00,
2013-04-14 08:52:00,52.0,45.0,29.42,West,270,13.0,18.0,76,-99.99,,,-99.99,,2013-04-14 13:52:00,
2013-04-14 09:02:00,52.0,45.0,29.42,West,270,13.0,18.0,76,-99.99,,,-99.99,,2013-04-14 14:02:00,
2013-04-14 09:12:00,52.0,45.0,29.44,West,270,14.0,-999.0,76,-99.99,,,-99.99,,2013-04-14 14:12:00,
2013-04-14 09:22:00,54.0,45.0,29.44,West,260,15.0,-999.0,71,-99.99,,,-99.99,,2013-04-14 14:22:00,
2013-04-14 09:32:00,54.0,45.0,29.44,West,280,17.0,22.0,71,-99.99,,,-99.99,,2013-04-14 14:32:00,
2013-04-14 09:42:00,54.0,43.0,29.44,West,280,21.0,29.0,66,-99.99,,,-99.99,,2013-04-14 14:42:00,
2013-04-14 09:52:00,55.0,39.0,29.45,WNW,290,25.0,31.0,54,-99.99,,,-99.99,,2013-04-14 14:52:00,
2013-04-14 10:02:00,55.0,39.0,29.45,WNW,290,25.0,31.0,54,-99.99,,,-99.99,,2013-04-14 15:02:00,
2013-04-14 10:12:00,57.0,36.0,29.46,WNW,300,28.0,37.0,44,-99.99,,,-99.99,,2013-04-14 15:12:00,
2013-04-14 10:22:00,57.0,28.0,29.47,NW,310,31.0,44.0,33,-99.99,,,-99.99,,2013-04-14 15:22:00,
2013-04-14 10:33:00,55.0,28.0,29.47,WNW,300,24.0,39.0,35,-99.99,,,-99.99,,2013-04-14 15:33:00,
2013-04-14 10:43:00,55.0,28.0,29.48,WNW,300,28.0,38.0,35,-99.99,,,-99.99,,2013-04-14 15:43:00,
2013-04-14 10:52:00,57.0,27.0,29.49,WNW,290,27.0,36.0,30,-99.99,,,-99.99,,2013-04-14 15:52:00,
2013-04-14 11:04:00,57.0,27.0,29.49,WNW,290,27.0,36.0,30,-99.99,,,-99.99,,2013-04-14 16:04:00,
2013-04-14 11:13:00,57.0,25.0,29.50,WNW,290,27.0,39.0,28,-99.99,,,-99.99,,2013-04-14 16:13:00,
2013-04-14 11:22:00,57.0,21.0,29.50,WNW,290,36.0,43.0,24,-99.99,,,-99.99,,2013-04-14 16:22:00,
2013-04-14 11:32:00,57.0,23.0,29.51,West,280,27.0,43.0,26,-99.99,,,-99.99,,2013-04-14 16:32:00,
2013-04-14 11:43:00,59.0,25.0,29.51,West,280,31.0,39.0,26,-99.99,,,-99.99,,2013-04-14 16:43:00,
2013-04-14 11:53:00,59.0,23.0,29.51,WNW,300,27.0,39.0,24,-99.99,,,-99.99,,2013-04-14 16:53:00,
2013-04-14 12:02:00,59.0,23.0,29.51,WNW,300,27.0,39.0,24,-99.99,,,-99.99,,2013-04-14 17:02:00,
2013-04-14 12:12:00,59.0,21.0,29.51,WNW,290,28.0,36.0,22,-99.99,,,-99.99,,2013-04-14 17:12:00,
2013-04-14 12:22:00,59.0,21.0,29.51,WNW,300,29.0,40.0,22,-99.99,,,-99.99,,2013-04-14 17:22:00,
2013-04-14 12:32:00,61.0,21.0,29.50,WNW,290,32.0,41.0,21,-99.99,,,-99.99,,2013-04-14 17:32:00,
2013-04-14 12:42:00,59.0,19.0,29.50,WNW,290,33.0,44.0,21,-99.99,,,-99.99,,2013-04-14 17:42:00,
2013-04-14 12:52:00,55.0,21.0,29.49,WNW,290,32.0,43.0,26,-99.99,,,-99.99,,2013-04-14 17:52:00,
2013-04-14 13:02:00,55.0,21.0,29.49,WNW,290,32.0,43.0,26,-99.99,,,-99.99,,2013-04-14 18:02:00,
2013-04-14 13:12:00,61.0,21.0,29.48,WNW,290,36.0,51.0,21,-99.99,,,-99.99,,2013-04-14 18:12:00,
2013-04-14 13:22:00,59.0,21.0,29.49,WNW,300,38.0,51.0,22,-99.99,,,-99.99,,2013-04-14 18:22:00,
2013-04-14 13:32:00,61.0,21.0,29.49,West,280,39.0,53.0,21,-99.99,,,-99.99,,2013-04-14 18:32:00,
2013-04-14 13:42:00,61.0,23.0,29.51,West,280,33.0,53.0,23,-99.99,,,-99.99,,2013-04-14 18:42:00,
2013-04-14 13:52:00,61.0,25.0,29.51,WNW,290,32.0,48.0,25,-99.99,,,-99.99,,2013-04-14 18:52:00,
2013-04-14 14:03:00,61.0,25.0,29.51,WNW,290,32.0,48.0,25,-99.99,,,-99.99,,2013-04-14 19:03:00,
2013-04-14 14:12:00,61.0,25.0,29.51,WNW,290,39.0,52.0,25,-99.99,,,-99.99,,2013-04-14 19:12:00,
2013-04-14 14:22:00,61.0,23.0,29.52,West,280,41.0,53.0,23,-99.99,,,-99.99,,2013-04-14 19:22:00,
2013-04-14 14:32:00,61.0,25.0,29.53,WNW,290,33.0,47.0,25,-99.99,,,-99.99,,2013-04-14 19:32:00,
2013-04-14 14:42:00,61.0,25.0,29.53,WNW,290,38.0,48.0,25,-99.99,,,-99.99,,2013-04-14 19:42:00,
2013-04-14 14:52:00,61.0,25.0,29.53,WNW,290,38.0,50.0,25,-99.99,,,-99.99,,2013-04-14 19:52:00,
2013-04-14 15:02:00,61.0,25.0,29.53,WNW,290,38.0,50.0,25,-99.99,,,-99.99,,2013-04-14 20:02:00,
2013-04-14 15:12:00,61.0,25.0,29.54,WNW,290,32.0,48.0,25,-99.99,,,-99.99,,2013-04-14 20:12:00,
2013-04-14 15:22:00,61.0,23.0,29.54,WNW,290,31.0,48.0,23,-99.99,,,-99.99,,2013-04-14 20:22:00,
2013-04-14 15:32:00,61.0,23.0,29.54,WNW,290,33.0,44.0,23,-99.99,,,-99.99,,2013-04-14 20:32:00,
2013-04-14 15:42:00,61.0,23.0,29.55,WNW,300,36.0,46.0,23,-99.99,,,-99.99,,2013-04-14 20:42:00,
2013-04-14 15:52:00,61.0,21.0,29.56,WNW,300,31.0,45.0,21,-99.99,,,-99.99,,2013-04-14 20:52:00,
2013-04-14 16:02:00,61.0,21.0,29.56,WNW,300,31.0,45.0,21,-99.99,,,-99.99,,2013-04-14 21:02:00,
2013-04-14 16:12:00,61.0,21.0,29.56,West,280,30.0,43.0,21,-99.99,,,-99.99,,2013-04-14 21:12:00,
2013-04-14 16:22:00,61.0,19.0,29.57,West,280,33.0,41.0,19,-99.99,,,-99.99,,2013-04-14 21:22:00,
2013-04-14 16:33:00,61.0,19.0,29.57,WNW,290,28.0,44.0,19,-99.99,,,-99.99,,2013-04-14 21:33:00,
2013-04-14 16:43:00,61.0,21.0,29.58,West,280,28.0,44.0,21,-99.99,,,-99.99,,2013-04-14 21:43:00,
2013-04-14 16:53:00,61.0,21.0,29.59,WNW,300,25.0,40.0,21,-99.99,,,-99.99,,2013-04-14 21:53:00,
2013-04-14 17:03:00,61.0,21.0,29.59,WNW,300,25.0,40.0,21,-99.99,,,-99.99,,2013-04-14 22:03:00,
2013-04-14 17:12:00,59.0,21.0,29.61,WNW,300,23.0,39.0,22,-99.99,,,-99.99,,2013-04-14 22:12:00,
2013-04-14 17:23:00,61.0,21.0,29.61,WNW,290,30.0,36.0,21,-99.99,,,-99.99,,2013-04-14 22:23:00,
2013-04-14 17:32:00,59.0,21.0,29.62,WNW,290,29.0,38.0,22,-99.99,,,-99.99,,2013-04-14 22:32:00,
2013-04-14 17:43:00,57.0,21.0,29.62,WNW,290,28.0,38.0,24,-99.99,,,-99.99,,2013-04-14 22:43:00,
2013-04-14 17:52:00,57.0,19.0,29.63,WNW,290,25.0,36.0,22,-99.99,,,-99.99,,2013-04-14 22:52:00,
2013-04-14 18:02:00,57.0,19.0,29.63,WNW,290,25.0,36.0,22,-99.99,,,-99.99,,2013-04-14 23:02:00,
2013-04-14 18:12:00,57.0,19.0,29.63,WNW,300,22.0,33.0,22,-99.99,,,-99.99,,2013-04-14 23:12:00,
2013-04-14 18:22:00,57.0,19.0,29.64,WNW,300,21.0,30.0,22,-99.99,,,-99.99,,2013-04-14 23:22:00,
2013-04-14 18:33:00,55.0,19.0,29.65,WNW,290,22.0,33.0,24,-99.99,,,-99.99,,2013-04-14 23:33:00,
2013-04-14 18:42:00,55.0,18.0,29.64,WNW,290,22.0,30.0,22,-99.99,,,-99.99,,2013-04-14 23:42:00,
2013-04-14 18:52:00,55.0,18.0,29.66,WNW,290,21.0,30.0,22,-99.99,,,-99.99,,2013-04-14 23:52:00,
2013-04-14 19:02:00,55.0,18.0,29.66,WNW,290,21.0,30.0,22,-99.99,,,-99.99,,2013-04-15 00:02:00,
2013-04-14 19:12:00,55.0,21.0,29.67,NW,310,15.0,20.0,26,-99.99,,,-99.99,,2013-04-15 00:12:00,
2013-04-14 19:22:00,54.0,21.0,29.68,NW,310,9.0,16.0,27,-99.99,,,-99.99,,2013-04-15 00:22:00,
2013-04-14 19:32:00,54.0,21.0,29.68,NW,320,8.0,-999.0,27,-99.99,,,-99.99,,2013-04-15 00:32:00,
2013-04-14 19:42:00,54.0,23.0,29.69,NNW,340,7.0,-999.0,30,-99.99,,,-99.99,,2013-04-15 00:42:00,
2013-04-14 19:52:00,52.0,23.0,29.70,NW,320,8.0,-999.0,32,-99.99,,,-99.99,,2013-04-15 00:52:00,
2013-04-14 20:02:00,52.0,23.0,29.70,NW,320,8.0,-999.0,32,-99.99,,,-99.99,,2013-04-15 01:02:00,
2013-04-14 20:12:00,52.0,23.0,29.70,NNW,340,5.0,-999.0,32,-99.99,,,-99.99,,2013-04-15 01:12:00,
2013-04-14 20:23:00,50.0,23.0,29.70,North,0,0.0,-999.0,34,-99.99,,,-99.99,,2013-04-15 01:23:00,
2013-04-14 20:32:00,50.0,23.0,29.70,North,0,0.0,-999.0,34,-99.99,,,-99.99,,2013-04-15 01:32:00,
2013-04-14 20:42:00,50.0,23.0,29.71,North,0,0.0,-999.0,34,-99.99,,,-99.99,,2013-04-15 01:42:00,
2013-04-14 20:52:00,48.0,23.0,29.72,North,360,3.0,-999.0,36,-99.99,,,-99.99,,2013-04-15 01:52:00,
2013-04-14 21:02:00,48.0,23.0,29.72,North,360,3.0,-999.0,36,-99.99,,,-99.99,,2013-04-15 02:02:00,
2013-04-14 21:12:00,48.0,23.0,29.73,North,0,0.0,-999.0,36,-99.99,,,-99.99,,2013-04-15 02:12:00,
2013-04-14 21:22:00,45.0,25.0,29.73,NNW,330,7.0,-999.0,45,-99.99,,,-99.99,,2013-04-15 02:22:00,
2013-04-14 21:32:00,43.0,23.0,29.73,NNW,340,7.0,-999.0,45,-99.99,,,-99.99,,2013-04-15 02:32:00,
2013-04-14 21:42:00,43.0,23.0,29.73,NNW,330,6.0,-999.0,45,-99.99,,,-99.99,,2013-04-15 02:42:00,
2013-04-14 21:52:00,45.0,23.0,29.74,NNW,330,3.0,-999.0,42,-99.99,,,-99.99,,2013-04-15 02:52:00,
2013-04-14 22:03:00,45.0,23.0,29.74,NNW,330,3.0,-999.0,42,-99.99,,,-99.99,,2013-04-15 03:03:00,
2013-04-14 22:12:00,46.0,21.0,29.74,North,0,0.0,-999.0,36,-99.99,,,-99.99,,2013-04-15 03:12:00,
2013-04-14 22:22:00,46.0,21.0,29.75,North,0,0.0,-999.0,36,-99.99,,,-99.99,,2013-04-15 03:22:00,
2013-04-14 22:32:00,46.0,21.0,29.75,North,0,0.0,-999.0,36,-99.99,,,-99.99,,2013-04-15 03:32:00,
2013-04-14 22:43:00,46.0,21.0,29.75,WNW,290,3.0,-999.0,36,-99.99,,,-99.99,,2013-04-15 03:43:00,
2013-04-14 22:54:00,43.0,23.0,29.75,North,0,0.0,-999.0,45,-99.99,,,-99.99,,2013-04-15 03:54:00,
2013-04-14 23:03:00,43.0,23.0,29.75,West,260,3.0,-999.0,45,-99.99,,,-99.99,,2013-04-15 04:03:00,
2013-04-14 23:13:00,41.0,23.0,29.75,West,270,3.0,-999.0,48,-99.99,,,-99.99,,2013-04-15 04:13:00,
2013-04-14 23:22:00,37.0,23.0,29.75,South,180,6.0,-999.0,55,-99.99,,,-99.99,,2013-04-15 04:22:00,
2013-04-14 23:33:00,37.0,25.0,29.75,SSW,210,7.0,-999.0,60,-99.99,,,-99.99,,2013-04-15 04:33:00,
2013-04-14 23:42:00,37.0,25.0,29.75,SW,220,7.0,-999.0,60,-99.99,,,-99.99,,2013-04-15 04:42:00,
2013-04-14 23:52:00,36.0,25.0,29.75,WSW,240,6.0,-999.0,64,-99.99,,,-99.99,,2013-04-15 04:52:00,